createdAt,value
2023-02-05T00:03:25.670Z,27.23
2023-02-05T00:08:30.332Z,14.25
2023-02-05T00:13:32.703Z,10.90
2023-02-05T00:18:35.075Z,11.68
2023-02-05T00:23:37.819Z,11.85
2023-02-05T00:28:40.213Z,9.40
2023-02-05T00:33:42.956Z,10.13
2023-02-05T00:38:46.059Z,8.90
2023-02-05T00:43:48.304Z,8.90
2023-02-05T00:48:50.981Z,9.27
2023-02-05T00:53:53.503Z,11.77
2023-02-05T00:58:58.257Z,9.10
2023-02-05T01:04:00.506Z,17.08
2023-02-05T01:09:02.821Z,14.55
2023-02-05T01:14:05.010Z,6.97
2023-02-05T01:19:07.231Z,8.63
2023-02-05T01:24:09.534Z,13.57
2023-02-05T01:29:11.393Z,9.35
2023-02-05T01:34:13.559Z,9.60
2023-02-05T01:39:16.011Z,7.25
2023-02-05T01:44:24.933Z,7.45
2023-02-05T01:49:31.861Z,10.02
2023-02-05T01:54:35.886Z,9.95
2023-02-05T01:59:42.827Z,14.45
2023-02-05T02:04:48.001Z,13.73
2023-02-05T02:09:50.494Z,12.38
2023-02-05T02:14:57.350Z,16.75
2023-02-05T02:20:01.129Z,11.05
2023-02-05T02:25:28.491Z,12.07
2023-02-05T02:30:36.354Z,12.10
2023-02-05T02:35:49.613Z,11.43
2023-02-05T02:40:55.223Z,10.32
2023-02-05T02:46:09.537Z,12.52
2023-02-05T02:51:14.073Z,8.05
2023-02-05T02:56:17.708Z,10.32
2023-02-05T03:01:24.123Z,13.80
2023-02-05T03:06:27.054Z,13.25
2023-02-05T03:11:29.895Z,9.50
2023-02-05T03:16:33.902Z,9.75
2023-02-05T03:21:43.732Z,10.52
2023-02-05T03:26:45.951Z,8.63
2023-02-05T03:31:48.842Z,9.65
2023-02-05T03:36:51.018Z,7.47
2023-02-05T03:42:09.241Z,6.72
2023-02-05T03:47:31.930Z,6.00
2023-02-05T03:52:38.394Z,5.82
2023-02-05T03:57:45.150Z,7.38
2023-02-05T04:02:47.386Z,6.43
2023-02-05T04:07:51.003Z,8.77
2023-02-05T04:12:53.192Z,9.02
2023-02-05T04:17:58.121Z,10.32
2023-02-05T04:23:01.048Z,6.32
2023-02-05T04:28:03.435Z,7.18
2023-02-05T04:33:06.184Z,6.95
2023-02-05T04:38:08.593Z,6.65
2023-02-05T04:43:11.052Z,9.55
2023-02-05T04:48:13.630Z,8.80
2023-02-05T04:53:15.579Z,10.40
2023-02-05T04:58:17.631Z,7.47
2023-02-05T05:03:20.014Z,7.88
2023-02-05T05:08:22.491Z,6.13
2023-02-05T05:13:24.674Z,8.45
2023-02-05T05:18:27.197Z,10.02
2023-02-05T05:23:29.785Z,10.73
2023-02-05T05:28:34.904Z,18.05
2023-02-05T05:33:37.407Z,11.60
2023-02-05T05:38:40.466Z,11.15
2023-02-05T05:43:49.187Z,11.75
2023-02-05T05:48:56.224Z,12.40
2023-02-05T05:53:58.560Z,12.15
2023-02-05T05:59:00.355Z,17.15
2023-02-05T06:04:04.274Z,15.05
2023-02-05T06:09:06.728Z,15.40
2023-02-05T06:14:08.959Z,14.20
2023-02-05T06:19:11.568Z,22.65
2023-02-05T06:24:13.931Z,24.65
2023-02-05T06:29:16.262Z,18.35
2023-02-05T06:34:18.512Z,15.93
2023-02-05T06:39:21.573Z,14.95
2023-02-05T06:44:24.438Z,22.35
2023-02-05T06:49:26.596Z,21.92
2023-02-05T06:54:28.771Z,19.95
2023-02-05T06:59:31.100Z,32.85
2023-02-05T07:04:33.881Z,21.85
2023-02-05T07:09:36.225Z,11.82
2023-02-05T07:14:39.132Z,16.00
2023-02-05T07:19:40.916Z,11.57
2023-02-05T07:24:43.485Z,14.45
2023-02-05T07:29:46.017Z,16.60
2023-02-05T07:34:48.264Z,15.60
2023-02-05T07:39:50.384Z,10.07
2023-02-05T07:44:52.597Z,7.55
2023-02-05T07:49:56.079Z,8.55
2023-02-05T07:54:59.131Z,8.02
2023-02-05T08:00:01.324Z,10.13
2023-02-05T08:05:03.542Z,8.90
2023-02-05T08:10:05.711Z,9.63
2023-02-05T08:15:07.971Z,12.02
2023-02-05T08:20:10.622Z,12.15
2023-02-05T08:25:14.580Z,16.08
2023-02-05T08:30:18.548Z,10.32
2023-02-05T08:35:20.926Z,8.85
2023-02-05T08:40:23.180Z,6.85
2023-02-05T08:45:25.716Z,8.10
2023-02-05T08:50:28.036Z,12.95
2023-02-05T08:55:30.340Z,11.15
2023-02-05T09:00:33.350Z,15.90
2023-02-05T09:05:35.786Z,15.18
2023-02-05T09:10:38.248Z,15.20
2023-02-05T09:15:48.684Z,12.32
2023-02-05T09:20:52.021Z,13.50
2023-02-05T09:25:54.179Z,18.80
2023-02-05T09:30:56.494Z,17.73
2023-02-05T09:35:58.994Z,14.65
2023-02-05T09:41:10.421Z,17.25
2023-02-05T09:51:38.456Z,21.80
2023-02-05T09:56:54.180Z,17.85
2023-02-05T10:01:59.616Z,17.98
2023-02-05T10:07:03.366Z,15.73
2023-02-05T10:12:17.295Z,18.73
2023-02-05T10:17:29.577Z,20.38
2023-02-05T10:22:44.023Z,19.70
2023-02-05T10:28:01.180Z,22.52
2023-02-05T10:33:17.485Z,18.90
2023-02-05T10:38:25.224Z,20.83
2023-02-05T10:43:45.556Z,24.23
2023-02-05T10:48:57.360Z,19.30
2023-02-05T10:54:00.834Z,21.40
2023-02-05T10:59:05.155Z,12.75
2023-02-05T11:04:20.037Z,12.52
2023-02-05T11:09:26.437Z,18.85
2023-02-05T11:14:38.411Z,18.58
2023-02-05T11:19:40.698Z,17.75
2023-02-05T11:24:42.579Z,26.98
2023-02-05T11:29:44.985Z,25.00
2023-02-05T11:34:47.638Z,28.30
2023-02-05T11:39:55.318Z,24.30
2023-02-05T11:45:01.060Z,22.33
2023-02-05T11:50:06.013Z,14.32
2023-02-05T11:55:24.488Z,16.35
2023-02-05T12:00:27.096Z,12.85
2023-02-05T12:05:36.128Z,10.02
2023-02-05T12:11:03.608Z,17.25
2023-02-05T12:16:28.069Z,26.05
2023-02-05T12:21:51.939Z,26.80
2023-02-05T12:27:07.345Z,35.83
2023-02-05T12:32:45.617Z,13.25
2023-02-05T12:37:56.998Z,14.50
2023-02-05T12:48:46.006Z,15.30
2023-02-05T12:54:03.496Z,13.80
2023-02-05T12:59:15.852Z,13.43
2023-02-05T13:04:40.623Z,12.60
2023-02-05T13:09:45.796Z,24.58
2023-02-05T13:14:49.251Z,18.60
2023-02-05T13:20:09.083Z,14.63
2023-02-05T13:25:59.468Z,18.27
2023-02-05T13:31:03.610Z,14.98
2023-02-05T13:36:23.657Z,11.48
2023-02-05T13:42:03.577Z,11.13
2023-02-05T13:47:39.647Z,17.83
2023-02-05T13:52:50.288Z,23.25
2023-02-05T13:58:24.372Z,15.40
2023-02-05T14:03:39.333Z,21.90
2023-02-05T14:08:41.769Z,8.00
2023-02-05T14:14:33.315Z,7.88
2023-02-05T14:19:56.187Z,8.63
2023-02-05T14:24:58.380Z,7.28
2023-02-05T14:30:40.294Z,8.20
2023-02-05T14:35:43.963Z,5.72
2023-02-05T14:41:11.867Z,5.50
2023-02-05T14:46:23.017Z,7.38
2023-02-05T14:51:59.310Z,7.22
2023-02-05T14:57:15.894Z,8.30
2023-02-05T15:02:55.643Z,7.90
2023-02-05T15:08:23.483Z,8.45
2023-02-05T15:13:26.600Z,9.90
2023-02-05T15:18:32.252Z,12.43
2023-02-05T15:23:52.537Z,11.02
2023-02-05T15:29:04.849Z,16.70
2023-02-05T15:34:48.062Z,11.30
2023-02-05T15:40:03.664Z,11.43
2023-02-05T15:45:26.026Z,10.55
2023-02-05T15:50:29.270Z,19.63
2023-02-05T15:55:31.545Z,31.00
2023-02-05T16:00:37.715Z,20.77
2023-02-05T16:05:40.361Z,28.77
2023-02-05T16:10:52.264Z,14.90
2023-02-05T16:16:10.705Z,75.45
2023-02-05T16:21:26.191Z,11.20
2023-02-05T16:26:44.375Z,9.65
2023-02-05T16:31:46.769Z,20.10
2023-02-05T16:36:50.666Z,13.32
2023-02-05T16:42:07.923Z,14.45
2023-02-05T16:47:19.139Z,12.65
2023-02-05T16:52:35.726Z,13.00
2023-02-05T16:57:39.792Z,8.93
2023-02-05T17:02:42.332Z,8.30
2023-02-05T17:07:44.333Z,7.47
2023-02-05T17:12:57.917Z,8.82
2023-02-05T17:18:04.825Z,10.70
2023-02-05T17:23:08.377Z,11.07
2023-02-05T17:28:21.543Z,14.25
2023-02-05T17:33:25.811Z,9.35
2023-02-05T17:38:28.163Z,13.55
2023-02-05T17:43:30.532Z,11.95
2023-02-05T17:48:32.893Z,23.58
2023-02-05T17:53:35.229Z,21.98
2023-02-05T17:58:36.983Z,14.80
2023-02-05T18:03:39.634Z,25.33
2023-02-05T18:08:42.596Z,25.30
2023-02-05T18:13:44.992Z,9.85
2023-02-05T18:18:48.519Z,8.25
2023-02-05T18:23:52.545Z,10.50
2023-02-05T18:28:54.742Z,11.45
2023-02-05T18:33:56.506Z,12.68
2023-02-05T18:38:58.630Z,18.23
2023-02-05T18:44:00.365Z,12.93
2023-02-05T18:49:02.649Z,9.93
2023-02-05T18:54:07.899Z,12.75
2023-02-05T18:59:15.542Z,12.52
2023-02-05T19:04:21.075Z,16.17
2023-02-05T19:09:25.243Z,19.35
2023-02-05T19:14:28.831Z,21.25
2023-02-05T19:19:31.741Z,20.10
2023-02-05T19:24:34.434Z,22.90
2023-02-05T19:29:39.733Z,23.92
2023-02-05T19:34:43.314Z,19.60
2023-02-05T19:39:46.451Z,22.13
2023-02-05T19:44:49.676Z,22.80
2023-02-05T19:49:51.535Z,22.98
2023-02-05T19:54:53.802Z,24.15
2023-02-05T19:59:56.275Z,25.45
2023-02-05T20:04:58.045Z,24.25
2023-02-05T20:10:00.417Z,28.70
2023-02-05T20:15:02.796Z,41.58
2023-02-05T20:20:13.925Z,37.42
2023-02-05T20:25:20.569Z,22.95
2023-02-05T20:30:42.175Z,26.38
2023-02-05T20:35:44.533Z,30.15
2023-02-05T20:40:46.356Z,25.65
2023-02-05T20:45:48.538Z,24.77
2023-02-05T20:50:51.154Z,26.83
2023-02-05T20:55:53.018Z,24.38
2023-02-05T21:00:55.357Z,27.95
2023-02-05T21:05:57.817Z,27.90
2023-02-05T21:11:00.037Z,27.52
2023-02-05T21:16:02.795Z,25.48
2023-02-05T21:21:14.560Z,28.70
2023-02-05T21:26:31.549Z,29.42
2023-02-05T21:31:39.416Z,25.45
2023-02-05T21:36:42.127Z,28.95
2023-02-05T21:41:48.237Z,31.33
2023-02-05T21:46:50.028Z,32.60
2023-02-05T21:51:53.363Z,31.90
2023-02-05T21:56:56.188Z,26.92
2023-02-05T22:01:58.394Z,27.20
2023-02-05T22:07:00.271Z,33.58
2023-02-05T22:12:06.440Z,29.52
2023-02-05T22:17:08.700Z,31.48
2023-02-05T22:22:10.804Z,35.83
2023-02-05T22:27:13.411Z,30.00
2023-02-05T22:32:15.868Z,34.40
2023-02-05T22:37:17.950Z,29.92
2023-02-05T22:42:20.155Z,30.05
2023-02-05T22:47:22.468Z,29.33
2023-02-05T22:52:26.266Z,29.52
2023-02-05T22:57:28.468Z,28.55
2023-02-05T23:02:31.496Z,27.00
2023-02-05T23:07:34.047Z,22.65
2023-02-05T23:12:36.229Z,24.63
2023-02-05T23:17:38.100Z,26.15
2023-02-05T23:22:41.018Z,21.88
2023-02-05T23:27:43.559Z,22.98
2023-02-05T23:32:46.210Z,21.17
2023-02-05T23:37:48.082Z,23.30
2023-02-05T23:42:50.552Z,25.45
2023-02-05T23:47:53.790Z,27.23
2023-02-05T23:52:56.374Z,25.83
2023-02-05T23:57:58.211Z,24.90
